Plainfield, Illinois
Current Conditions -  °F | °C
As of 1:35 AM on Saturday 29 Nov 2014 (Local Time) from KLOT Reporting Station
Clear Clear  
Wind Chill: 22°   Ceiling: Unl
Heat Index: 31°   Visibility: 7mi
Dew Point: 28°   Wind: 12mph
Humidity: 88%   Direction: 170°S
Pressure: 29.84"   Gusts: NA
Location:  41.62°N, 88.2°W
Report Text: KLOT 290735Z AUTO 17010KT 7SM CLR 00/M02 A2984 RMK AO2 T10051022
Loading
Personal Weather Stations






























Interactive Weather Map New forecast layout! Learn more

10-Day Weather Forecast

Advertisements
Track Severe Weather on mobile